Layer de la Haye, United Kingdom
Current Conditions -  °F | °C
As of 8:50 PM on Thursday 27 Nov 2014 (Local Time) from EGUW Reporting Station
Haze Haze  
Wind Chill: 11°   Ceiling: 3400
Heat Index: 11°   Visibility: 4mi
Dew Point: 10°   Wind: 8mph
Humidity: 94%   Direction: 120°ESE
Pressure: 29.62"   Gusts: NA
Location:  51.85°N, 0.86°E
Report Text: EGUW 272050Z 12007KT 6000 BR SCT004 BKN034 11/10 Q1003 YLO2 TEMPO 2000 RADZ YLO2
Loading
Personal Weather Stations






























Interactive Weather Map New forecast layout! Learn more

10-Day Weather Forecast

Advertisements
Track Severe Weather on mobile